New Harbor, ME

43° 52' 34"N, 69° 29' 40"W, Elevation 65 ft.
Eastern Time

Hourly observations for the last 72 hours

Date Time Temperature (°F) Humi-
dity

(%)
Wind
(mph)
Pressure Rain (in) Sun
(W/m2)
ET
(in)
Air Dew 6 Hour 1 Hr 3 Hr 6 Hr Day
Alt
(in)
Sea
Level

(mb)
Max Min
20 15:00 40.6 33.3 75 SW 3 G 7 29.60 1002.4 0.03 0.12 91 0.024
20 14:00 40.0 32.4 74 SW 5 G 10 29.56 1000.9 0.03 0.09 146 0.020
20 13:00 40.4 30.3 40.4 34.9 67 WSW 5 G 13 29.54 1000.4 0.03 0.05 0.06 0.06 274 0.015
20 12:00 36.9 28.7 72 WSW 4 G 11 29.55 1000.5 0.01 0.03 283 0.012
20 11:00 37.4 28.9 71 WSW 5 G 15 29.55 1000.8 0.01 0.02 130 0.009
20 10:00 37.0 30.1 76 WSW 6 G 15 29.54 1000.3 0.01 0.01 0.01 95 0.007
20 09:00 36.5 30.6 79 WSW 9 G 18 29.53 1000.2 0.00 28 0.006
20 08:00 36.3 30.7 80 SW 6 G 17 29.54 1000.3 0.00 9 0.005
20 07:00 34.9 29.7 34.9 29.9 81 SSW 5 G 15 29.57 1001.4 0.00 0 0.004
20 06:00 34.3 29.4 82 SSW 4 G 16 29.60 1002.3 0.00 0 0.003
20 05:00 33.9 28.7 81 SW 3 G 14 29.62 1003.1 0.00 0 0.002
20 04:00 34.8 29.6 81 SW 5 G 11 29.68 1005.2 0.00 0 0.001
20 03:00 32.9 28.3 83 SW 5 G 11 29.72 1006.5 0.00 0 0.000
20 02:00 31.6 27.0 83 SW 6 G 12 29.75 1007.5 0.00 0 0.000
20 01:00 30.0 25.2 30.7 28.9 82 SW 3 G 7 29.77 1008.2 0.00 0 0.000
20 00:00 29.9 25.1 82 SSW 1 G 7 29.79 1009.0 0.09 0 0.015
19 23:00 29.9 25.4 83 WSW 4 G 7 29.83 1010.3 0.09 0 0.015
19 22:00 29.8 25.6 84 W 1 G 3 29.84 1010.5 0.09 0 0.015
19 21:00 30.6 26.6 85 W 2 G 7 29.86 1011.4 0.09 0 0.015
19 20:00 29.6 27.0 90 WSW 2 G 4 29.87 1011.5 0.09 0 0.015
19 19:00 29.0 25.9 35.0 29.0 88 W 2 G 3 29.86 1011.3 0.05 0.09 0 0.015
19 18:00 29.5 25.8 86 WSW 1 G 3 29.88 1011.8 0.09 0 0.015
19 17:00 29.8 25.8 85 WSW 1 G 3 29.89 1012.3 0.09 0 0.015
19 16:00 31.0 26.2 82 SSW 0 G 1 29.88 1012.0 0.05 0.09 18 0.014
19 15:00 31.8 25.4 77 W 2 G 5 29.89 1012.1 0.02 0.09 54 0.013
19 14:00 33.0 25.9 75 SW 4 G 7 29.88 1011.8 0.03 0.07 239 0.010
19 13:00 35.0 26.9 36.6 17.4 72 SW 3 G 6 29.88 1011.9 0.03 0.04 0.04 0.04 339 0.004
19 12:00 33.7 26.9 76 SW 1 G 8 29.90 1012.6 0.01 0.01 221 0.002
19 11:00 29.0 24.8 84 WNW 2 G 4 29.92 1013.2 0.00 86 0.001
19 10:00 26.2 24.5 93 WNW 3 G 5 29.94 1013.9 0.00 63 0.000
19 09:00 22.0 20.8 95 NW 1 G 3 29.94 1013.8 0.00 28 0.000
19 08:00 19.4 18.0 94 NW 0 G 1 29.92 1013.1 0.00 19 0.000
19 07:00 17.4 16.0 17.4 11.9 94 NW 1 G 3 29.92 1013.1 0.00 0 0.000
19 06:00 15.7 14.0 93 NW 1 G 3 29.89 1012.3 0.00 0 0.000
19 05:00 14.0 12.4 93 NW 1 G 3 29.90 1012.4 0.00 0 0.000
19 04:00 12.4 10.5 92 N 1 G 2 29.88 1011.7 0.00 0 0.000
19 03:00 12.3 10.4 92 WNW 0 G 2 29.88 1011.8 0.00 0 0.000
19 02:00 12.6 10.2 90 NW 1 G 3 29.87 1011.4 0.00 0 0.000
19 01:00 13.8 11.7 18.9 13.7 91 NW 1 G 2 29.86 1011.1 0.00 0 0.000
19 00:00 15.1 12.4 89 NW 2 G 2 29.87 1011.5 0.11 0 0.011
18 23:00 16.5 13.6 88 NNW 2 G 3 29.86 1011.4 0.11 0 0.011
18 22:00 17.3 14.9 90 NNW 2 G 5 29.87 1011.5 0.11 0 0.011
18 21:00 16.4 14.2 91 NNW 2 G 5 29.87 1011.5 0.11 0 0.011
18 20:00 17.4 15.0 90 NNW 1 G 3 29.86 1011.3 0.11 0 0.011
18 19:00 18.9 15.9 32.6 18.8 88 N 0 G 1 29.86 1011.2 0.05 0.11 0 0.011
18 18:00 21.2 17.7 86 N 0 G 1 29.83 1010.3 0.11 0 0.011
18 17:00 24.9 19.3 79 Calm 29.83 1010.0 0.11 0 0.011
18 16:00 28.8 21.2 73 N 1 G 6 29.82 1009.8 0.01 0.05 0.11 16 0.010
18 15:00 29.9 22.0 72 NNW 2 G 10 29.80 1009.1 0.02 0.10 114 0.008
18 14:00 30.6 23.0 73 NNE 3 G 9 29.82 1009.9 0.02 0.08 163 0.005
18 13:00 32.6 22.9 33.7 14.2 67 NNW 4 G 8 29.84 1010.7 0.05 0.06 0.06 0.06 171 0.003
18 12:00 31.4 23.1 71 WNW 5 G 11 29.86 1011.3 0.01 0.01 105 0.001
18 11:00 29.2 23.2 78 N 4 G 11 29.88 1012.0 0.00 62 0.000
18 10:00 23.8 20.2 86 NNW 4 G 13 29.91 1013.0 0.00 33 0.000
18 09:00 20.4 19.4 96 NNW 3 G 10 29.92 1013.1 0.00 21 0.000
18 08:00 14.5 12.8 93 NW 1 G 5 29.92 1013.1 0.00 11 0.000
18 07:00 15.1 13.2 25.4 15.1 92 NW 1 G 2 29.90 1012.6 0.00 0 0.000
18 06:00 16.5 14.6 92 NW 0 G 1 29.91 1012.9 0.00 0 0.000
18 05:00 18.4 16.7 93 NNW 2 G 4 29.91 1013.0 0.00 0 0.000
18 04:00 20.3 18.6 93 NNW 1 G 5 29.93 1013.4 0.00 0 0.000
18 03:00 22.1 20.1 92 NW 2 G 4 29.93 1013.4 0.00 0 0.000
18 02:00 25.0 23.3 93 NW 2 G 4 29.94 1013.8 0.00 0 0.000
18 01:00 25.4 23.7 27.5 25.3 93 NNW 2 G 7 29.97 1015.0 0.00 0 0.000
18 00:00 25.6 23.9 93 NW 3 G 8 29.99 1015.7 0.00 0 0.000
17 23:00 25.9 24.2 93 NW 4 G 8 30.00 1016.1 0.00 0 0.000
17 22:00 26.4 24.9 94 NW 3 G 6 30.01 1016.2 0.00 0 0.000
17 21:00 27.0 25.5 94 NNW 2 G 9 30.02 1016.5 0.00 0 0.000
17 20:00 27.3 25.8 94 NNW 2 G 5 30.03 1016.9 0.00 0 0.000
17 19:00 27.5 26.0 29.5 27.4 94 N 2 G 8 30.04 1017.2 0.00 0 0.000
17 18:00 27.6 26.1 94 N 3 G 6 30.08 1018.5 0.00 0 0.000
17 17:00 28.0 26.8 95 N 2 G 7 30.09 1019.2 0.00 0 0.000
17 16:00 28.2 26.7 94 NNE 3 G 9 30.11 1019.7 0.00 0 0.000

Data generated by WxSolution Version 1.9.0.6, Build 2017.01.14.